1919 NOT_NAMED (1919161N12126)


IBTrACS version v04r00. Visit IBTrACS website for data access.
Please direct all questions to the IBTrACS Q and A forum

Storm track - Intensity - Wind Radii - Intensity Data - Source Data - All data

Summary Information

Storm ID 1919161N12126
Start Jun 9 22Z
Landfall Jun 10 09Z, Jun 11 00Z, Jun 13 12Z
End Jun 13 22Z
ATCF IDs
Track status Best track data.

Storm track plot

Map of storm track

Intensity plots

No Intensity information for this storm


Radial wind information

No radial wind information for this storm


Position and Intensity Table

BASIN ISO_TIME_________ NATURE LAT LON
degrees north degrees east
WP 1919-06-09 22:00:00 NR 12.20 125.50
WP 1919-06-10 00:00:00 NR 12.40 125.22
WP 03:00:00 NR 12.70 124.79
WP 06:00:00 NR 12.97 124.37
WP 09:00:00 NR 13.22 123.94
WP 10:00:00 NR 13.30 123.80
WP 12:00:00 NR 13.44 123.52
WP 15:00:00 NR 13.63 123.09
WP 18:00:00 NR 13.82 122.64
WP 21:00:00 NR 14.02 122.17
WP 22:00:00 NR 14.10 122.00
WP 1919-06-11 00:00:00 NR 14.27 121.63
WP 03:00:00 NR 14.56 121.04
WP 06:00:00 NR 14.87 120.45
WP 09:00:00 NR 15.19 119.88
WP 10:00:00 NR 15.30 119.70
WP 12:00:00 NR 15.50 119.38
WP 15:00:00 NR 15.81 118.94
WP 18:00:00 NR 16.13 118.53
WP 21:00:00 NR 16.48 118.13
WP 22:00:00 NR 16.60 118.00
WP 1919-06-12 00:00:00 NR 16.85 117.74
WP 03:00:00 NR 17.26 117.35
WP 06:00:00 NR 17.70 116.96
WP 09:00:00 NR 18.15 116.55
WP 10:00:00 NR 18.30 116.40
WP 12:00:00 NR 18.62 116.07
WP 15:00:00 NR 19.10 115.55
WP 18:00:00 NR 19.59 115.03
WP 21:00:00 NR 20.05 114.55
WP 22:00:00 NR 20.20 114.40
WP 1919-06-13 00:00:00 NR 20.46 114.16
WP 03:00:00 NR 20.83 113.84
WP 06:00:00 NR 21.19 113.56
WP 09:00:00 NR 21.57 113.29
WP 10:00:00 NR 21.70 113.20
WP 12:00:00 NR 21.98 113.01
WP 15:00:00 NR 22.44 112.69
WP 18:00:00 NR 22.93 112.36
WP 21:00:00 NR 23.43 112.02
WP 22:00:00 NR 23.60 111.90

Source Information

Agency Information
USA
TOKYO
CMA
HKO
NEWDELHI
REUNION
BOM
NADI
WELLINGTON
DS824
TD9636 cons_worldwide_trop_cyclone_18710101-19891231-003:Line=5864
TD9635
NEUMANN
MLC

All available IBTrACS Data

SEASON BASIN SUBBASIN ISO_TIME_________ NATURE LAT LON DIST2LAND LANDFALL IFLAG USA SSHS TD9636 LAT TD9636 LON TD9636 STAGE STORM SPEED STORM DIR
Year degrees north degrees east km km 1 degrees north degrees east kts degrees
1919 WP MM 1919-06-09 22:00:00 NR 12.20 125.50 0 0 __________O___ -1 12.20 125.50 2 10 306
1919 WP MM 1919-06-10 00:00:00 NR 12.40 125.22 0 0 __________P___ -1 12.40 125.22 2 10 306
1919 WP MM 03:00:00 NR 12.70 124.79 24 24 __________P___ -1 12.70 124.79 2 10 305
1919 WP MM 06:00:00 NR 12.97 124.37 32 0 __________P___ -1 12.97 124.37 2 10 303
1919 WP MM 09:00:00 NR 13.22 123.94 0 0 __________P___ -1 13.22 123.94 2 10 301
1919 WP MM 10:00:00 NR 13.30 123.80 0 0 __________O___ -1 13.30 123.80 2 9 298
1919 WP MM 12:00:00 NR 13.44 123.52 0 0 __________P___ -1 13.44 123.52 2 9 296
1919 WP MM 15:00:00 NR 13.63 123.09 0 0 __________P___ -1 13.63 123.09 2 9 294
1919 WP MM 18:00:00 NR 13.82 122.64 10 0 __________P___ -1 13.82 122.64 2 10 294
1919 WP MM 21:00:00 NR 14.02 122.17 10 10 __________P___ -1 14.02 122.17 2 10 294
1919 WP MM 22:00:00 NR 14.10 122.00 15 0 __________O___ -1 14.10 122.00 2 12 296
1919 WP MM 1919-06-11 00:00:00 NR 14.27 121.63 0 0 __________P___ -1 14.27 121.63 2 12 296
1919 WP MM 03:00:00 NR 14.56 121.04 0 0 __________P___ -1 14.56 121.04 2 13 297
1919 WP MM 06:00:00 NR 14.87 120.45 0 0 __________P___ -1 14.87 120.45 2 13 299
1919 WP MM 09:00:00 NR 15.19 119.88 15 15 __________P___ -1 15.19 119.88 2 13 301
1919 WP MM 10:00:00 NR 15.30 119.70 24 24 __________O___ -1 15.30 119.70 2 11 303
1919 WP MM 12:00:00 NR 15.50 119.38 54 54 __________P___ -1 15.50 119.38 2 11 305
1919 WP MM 15:00:00 NR 15.81 118.94 88 86 __________P___ -1 15.81 118.94 2 10 307
1919 WP MM 18:00:00 NR 16.13 118.53 128 128 __________P___ -1 16.13 118.53 2 10 311
1919 WP MM 21:00:00 NR 16.48 118.13 179 179 __________P___ -1 16.48 118.13 2 10 313
1919 WP MM 22:00:00 NR 16.60 118.00 193 193 __________O___ -1 16.60 118.00 2 11 315
1919 WP MM 1919-06-12 00:00:00 NR 16.85 117.74 233 233 __________P___ -1 16.85 117.74 2 11 317
1919 WP MM 03:00:00 NR 17.26 117.35 278 288 __________P___ -1 17.26 117.35 2 11 318
1919 WP MM 06:00:00 NR 17.70 116.96 336 345 __________P___ -1 17.70 116.96 2 12 319
1919 WP MM 09:00:00 NR 18.15 116.55 404 407 __________P___ -1 18.15 116.55 2 12 319
1919 WP MM 10:00:00 NR 18.30 116.40 419 419 __________O___ -1 18.30 116.40 2 13 316
1919 WP MM 12:00:00 NR 18.62 116.07 453 378 __________P___ -1 18.62 116.07 2 14 315
1919 WP MM 15:00:00 NR 19.10 115.55 378 310 __________P___ -1 19.10 115.55 2 14 315
1919 WP MM 18:00:00 NR 19.59 115.03 310 246 __________P___ -1 19.59 115.03 2 13 315
1919 WP MM 21:00:00 NR 20.05 114.55 246 235 __________P___ -1 20.05 114.55 2 13 316
1919 WP MM 22:00:00 NR 20.20 114.40 235 199 __________O___ -1 20.20 114.40 2 11 318
1919 WP MM 1919-06-13 00:00:00 NR 20.46 114.16 199 148 __________P___ -1 20.46 114.16 2 10 320
1919 WP MM 03:00:00 NR 20.83 113.84 148 99 __________P___ -1 20.83 113.84 2 9 323
1919 WP MM 06:00:00 NR 21.19 113.56 99 45 __________P___ -1 21.19 113.56 2 9 325
1919 WP MM 09:00:00 NR 21.57 113.29 45 30 __________P___ -1 21.57 113.29 2 9 326
1919 WP MM 10:00:00 NR 21.70 113.20 30 0 __________O___ -1 21.70 113.20 2 10 327
1919 WP MM 12:00:00 NR 21.98 113.01 0 0 __________P___ -1 21.98 113.01 2 11 328
1919 WP MM 15:00:00 NR 22.44 112.69 0 0 __________P___ -1 22.44 112.69 2 11 328
1919 WP MM 18:00:00 NR 22.93 112.36 0 0 __________P___ -1 22.93 112.36 2 12 328
1919 WP MM 21:00:00 NR 23.43 112.02 0 0 __________P___ -1 23.43 112.02 2 12 328
1919 WP MM 22:00:00 NR 23.60 111.90 0 __________O___ -1 23.60 111.90 7 12 329